createdAt,value
2023-01-07T00:01:26.068Z,101637.47
2023-01-07T00:04:31.116Z,101629.59
2023-01-07T00:07:34.851Z,101629.59
2023-01-07T00:10:38.519Z,101613.06
2023-01-07T00:13:42.190Z,101613.00
2023-01-07T00:16:45.864Z,101615.56
2023-01-07T00:19:50.851Z,101600.84
2023-01-07T00:22:54.501Z,101611.13
2023-01-07T00:26:04.257Z,101611.13
2023-01-07T00:29:09.086Z,101609.38
2023-01-07T00:32:12.669Z,101607.59
2023-01-07T00:35:23.075Z,101600.63
2023-01-07T00:38:26.661Z,101602.28
2023-01-07T00:41:30.456Z,101600.34
2023-01-07T00:44:35.323Z,101604.72
2023-01-07T00:47:38.933Z,101597.78
2023-01-07T00:50:44.069Z,101593.41
2023-01-07T00:53:48.381Z,101596.91
2023-01-07T00:56:51.999Z,101603.91
2023-01-07T00:59:55.616Z,101602.09
2023-01-07T01:03:00.438Z,101591.59
2023-01-07T01:06:08.326Z,101594.09
2023-01-07T01:09:12.285Z,101589.69
2023-01-07T01:12:15.906Z,101590.59
2023-01-07T01:15:19.620Z,101594.94
2023-01-07T01:18:23.216Z,101588.00
2023-01-07T01:21:28.167Z,101581.78
2023-01-07T01:24:32.014Z,101563.41
2023-01-07T01:27:35.910Z,101551.06
2023-01-07T01:30:39.526Z,101571.19
2023-01-07T01:33:43.135Z,101570.50
2023-01-07T01:36:48.056Z,101573.94
2023-01-07T01:39:51.695Z,101586.16
2023-01-07T01:42:55.351Z,101580.16
2023-01-07T01:46:03.348Z,101583.53
2023-01-07T01:49:19.651Z,101574.81
2023-01-07T01:52:35.409Z,101573.06
2023-01-07T01:55:45.543Z,101566.13
2023-01-07T01:58:56.351Z,101556.41
2023-01-07T02:02:00.228Z,101559.84
2023-01-07T02:05:05.759Z,101555.47
2023-01-07T02:08:11.413Z,101559.81
2023-01-07T02:11:37.089Z,101558.03
2023-01-07T02:15:12.166Z,101558.00
2023-01-07T02:18:45.276Z,101556.19
2023-01-07T02:22:02.731Z,101549.19
2023-01-07T02:26:06.179Z,101547.41
2023-01-07T02:29:57.041Z,101531.72
2023-01-07T02:33:22.622Z,101545.66
2023-01-07T02:36:40.959Z,101536.88
2023-01-07T02:39:59.599Z,101523.81
2023-01-07T02:43:17.013Z,101522.03
2023-01-07T02:46:28.668Z,101515.03
2023-01-07T02:49:33.686Z,101515.66
2023-01-07T02:52:38.252Z,101503.50
2023-01-07T02:55:59.124Z,101501.78
2023-01-07T02:59:36.072Z,101498.28
2023-01-07T03:03:13.474Z,101505.28
2023-01-07T03:06:42.395Z,101500.88
2023-01-07T03:09:58.201Z,101494.69
2023-01-07T03:13:07.760Z,101494.66
2023-01-07T03:16:20.816Z,101492.94
2023-01-07T03:19:31.771Z,101485.88
2023-01-07T03:22:38.755Z,101492.78
2023-01-07T03:25:49.278Z,101487.53
2023-01-07T03:28:55.142Z,101485.78
2023-01-07T03:32:08.200Z,101481.28
2023-01-07T03:35:12.733Z,101476.00
2023-01-07T03:38:22.870Z,101476.88
2023-01-07T03:41:43.943Z,101477.84
2023-01-07T03:44:47.639Z,101469.94
2023-01-07T03:47:54.223Z,101471.59
2023-01-07T03:50:57.929Z,101466.38
2023-01-07T03:54:02.960Z,101463.72
2023-01-07T03:57:06.692Z,101468.97
2023-01-07T04:00:14.236Z,101468.09
2023-01-07T04:03:17.920Z,101461.97
2023-01-07T04:06:21.485Z,101463.69
2023-01-07T04:09:26.542Z,101462.88
2023-01-07T04:12:30.163Z,101457.63
2023-01-07T04:15:33.851Z,101457.59
2023-01-07T04:18:37.611Z,101460.19
2023-01-07T04:21:41.164Z,101461.84
2023-01-07T04:24:46.171Z,101451.44
2023-01-07T04:27:49.905Z,101446.16
2023-01-07T04:30:53.849Z,101438.34
2023-01-07T04:33:57.512Z,101434.66
2023-01-07T04:37:01.189Z,101437.34
2023-01-07T04:40:07.900Z,101428.59
2023-01-07T04:43:12.722Z,101425.75
2023-01-07T04:46:16.488Z,101431.09
2023-01-07T04:49:20.281Z,101425.84
2023-01-07T04:52:23.956Z,101420.63
2023-01-07T04:55:29.018Z,101427.56
2023-01-07T04:58:32.904Z,101431.09
2023-01-07T05:01:36.648Z,101424.09
2023-01-07T05:04:40.517Z,101415.34
2023-01-07T05:07:44.238Z,101413.59
2023-01-07T05:10:50.721Z,101415.34
2023-01-07T05:13:54.421Z,101413.63
2023-01-07T05:16:58.281Z,101417.03
2023-01-07T05:20:02.582Z,101415.22
2023-01-07T05:23:07.464Z,101412.63
2023-01-07T05:26:12.505Z,101414.41
2023-01-07T05:29:16.173Z,101413.53
2023-01-07T05:32:19.802Z,101403.84
2023-01-07T05:35:23.377Z,101408.22
2023-01-07T05:38:27.036Z,101408.25
2023-01-07T05:41:32.027Z,101406.56
2023-01-07T05:44:35.649Z,101407.38
2023-01-07T05:47:39.242Z,101401.25
2023-01-07T05:50:43.370Z,101410.94
2023-01-07T05:53:47.105Z,101406.56
2023-01-07T05:56:52.101Z,101413.41
2023-01-07T05:59:55.802Z,101408.09
2023-01-07T06:02:59.418Z,101416.88
2023-01-07T06:06:07.497Z,101409.91
2023-01-07T06:09:12.632Z,101407.25
2023-01-07T06:12:17.723Z,101415.97
2023-01-07T06:15:21.348Z,101417.69
2023-01-07T06:18:25.038Z,101411.59
2023-01-07T06:21:29.015Z,101412.50
2023-01-07T06:24:32.660Z,101416.91
2023-01-07T06:27:37.613Z,101408.94
2023-01-07T06:30:41.286Z,101415.09
2023-01-07T06:33:45.213Z,101410.72
2023-01-07T06:36:48.796Z,101401.94
2023-01-07T06:39:52.492Z,101401.09
2023-01-07T06:42:57.554Z,101403.75
2023-01-07T06:46:01.160Z,101400.19
2023-01-07T06:49:05.493Z,101399.34
2023-01-07T06:52:09.031Z,101394.13
2023-01-07T06:55:13.004Z,101399.28
2023-01-07T06:58:18.125Z,101400.25
2023-01-07T07:01:22.128Z,101397.63
2023-01-07T07:04:25.877Z,101396.84
2023-01-07T07:07:29.659Z,101391.66
2023-01-07T07:10:33.403Z,101398.59
2023-01-07T07:13:38.451Z,101398.66
2023-01-07T07:16:42.089Z,101396.91
2023-01-07T07:19:45.767Z,101395.16
2023-01-07T07:22:50.266Z,101395.25
2023-01-07T07:25:53.941Z,101389.06
2023-01-07T07:28:58.913Z,101390.84
2023-01-07T07:32:03.608Z,101389.19
2023-01-07T07:35:08.544Z,101392.69
2023-01-07T07:38:12.135Z,101386.63
2023-01-07T07:41:15.720Z,101387.44
2023-01-07T07:44:20.801Z,101388.38
2023-01-07T07:47:24.513Z,101385.75
2023-01-07T07:50:28.065Z,101382.25
2023-01-07T07:53:31.819Z,101380.22
2023-01-07T07:56:35.661Z,101375.28
2023-01-07T07:59:40.607Z,101381.31
2023-01-07T08:02:44.218Z,101379.59
2023-01-07T08:05:47.776Z,101382.28
2023-01-07T08:08:51.483Z,101378.88
2023-01-07T08:11:55.887Z,101373.75
2023-01-07T08:15:00.999Z,101377.25
2023-01-07T08:18:08.319Z,101378.13
2023-01-07T08:21:11.964Z,101371.22
2023-01-07T08:24:15.727Z,101368.66
2023-01-07T08:27:19.352Z,101366.09
2023-01-07T08:30:25.057Z,101372.09
2023-01-07T08:33:29.442Z,101379.13
2023-01-07T08:36:33.057Z,101386.75
2023-01-07T08:39:37.411Z,101384.81
2023-01-07T08:42:41.417Z,101388.13
2023-01-07T08:45:53.159Z,101380.25
2023-01-07T08:48:56.962Z,101366.38
2023-01-07T08:52:00.625Z,101377.69
2023-01-07T08:55:04.469Z,101375.66
2023-01-07T08:58:08.212Z,101371.16
2023-01-07T09:01:13.626Z,101370.47
2023-01-07T09:04:17.479Z,101368.69
2023-01-07T09:07:21.209Z,101364.28
2023-01-07T09:10:27.546Z,101359.97
2023-01-07T09:13:31.278Z,101356.47
2023-01-07T09:16:36.583Z,101354.53
2023-01-07T09:19:40.343Z,101352.78
2023-01-07T09:22:44.191Z,101355.38
2023-01-07T09:25:47.783Z,101346.75
2023-01-07T09:28:51.447Z,101350.47
2023-01-07T09:31:56.522Z,101350.41
2023-01-07T09:35:01.122Z,101345.22
2023-01-07T09:38:05.235Z,101347.88
2023-01-07T09:41:30.437Z,101347.84
2023-01-07T09:44:54.924Z,101343.44
2023-01-07T09:48:06.995Z,101345.03
2023-01-07T09:51:25.577Z,101346.59
2023-01-07T09:54:35.202Z,101343.00
2023-01-07T09:57:39.084Z,101334.00
2023-01-07T10:00:58.771Z,101330.81
2023-01-07T10:04:34.386Z,101327.34
2023-01-07T10:07:48.595Z,101336.97
2023-01-07T10:11:05.764Z,101326.53
2023-01-07T10:14:45.647Z,101327.41
2023-01-07T10:18:10.581Z,101326.22
2023-01-07T10:21:23.239Z,101318.31
2023-01-07T10:24:32.181Z,101311.22
2023-01-07T10:27:40.314Z,101309.38
2023-01-07T10:30:51.789Z,101314.63
2023-01-07T10:33:58.527Z,101305.03
2023-01-07T10:37:08.043Z,101301.44
2023-01-07T10:40:35.159Z,101298.81
2023-01-07T10:44:08.481Z,101290.94
2023-01-07T10:47:28.784Z,101283.84
2023-01-07T10:50:53.958Z,101276.19
2023-01-07T10:54:15.558Z,101274.56
2023-01-07T10:57:22.849Z,101265.66
2023-01-07T11:00:27.400Z,101265.78
2023-01-07T11:03:31.370Z,101257.78
2023-01-07T11:06:42.157Z,101251.53
2023-01-07T11:09:49.418Z,101241.66
2023-01-07T11:12:58.050Z,101237.50
2023-01-07T11:16:10.834Z,101228.53
2023-01-07T11:19:15.185Z,101228.56
2023-01-07T11:22:33.498Z,101218.78
2023-01-07T11:25:38.717Z,101226.97
2023-01-07T11:28:53.969Z,101220.09
2023-01-07T11:32:02.662Z,101213.03
2023-01-07T11:35:22.442Z,101202.88
2023-01-07T11:38:32.608Z,101199.72
2023-01-07T11:41:37.594Z,101189.13
2023-01-07T11:44:41.304Z,101190.13
2023-01-07T11:47:57.362Z,101189.16
2023-01-07T11:51:04.569Z,101179.56
2023-01-07T11:54:22.044Z,101178.75
2023-01-07T11:57:30.128Z,101173.53
2023-01-07T12:00:35.304Z,101171.78
2023-01-07T12:03:43.247Z,101168.41
2023-01-07T12:06:50.083Z,101167.66
2023-01-07T12:09:53.721Z,101158.88
2023-01-07T12:13:01.596Z,101149.31
2023-01-07T12:16:08.271Z,101152.59
2023-01-07T12:19:31.481Z,101144.97
2023-01-07T12:22:50.165Z,101127.50
2023-01-07T12:26:09.036Z,101132.84
2023-01-07T12:29:32.143Z,101133.53
2023-01-07T12:32:52.733Z,101123.09
2023-01-07T12:36:03.942Z,101120.69
2023-01-07T12:39:20.386Z,101113.44
2023-01-07T12:42:30.259Z,101101.72
2023-01-07T12:45:49.264Z,101092.38
2023-01-07T12:49:06.706Z,101089.69
2023-01-07T12:52:20.384Z,101091.66
2023-01-07T12:55:29.739Z,101081.78
2023-01-07T12:58:49.228Z,101077.59
2023-01-07T13:02:07.621Z,101068.38
2023-01-07T13:05:18.210Z,101060.66
2023-01-07T13:08:39.633Z,101048.66
2023-01-07T13:12:05.277Z,101048.19
2023-01-07T13:15:27.031Z,101053.44
2023-01-07T13:18:32.544Z,101062.28
2023-01-07T13:21:37.628Z,101047.59
2023-01-07T13:24:58.699Z,101050.34
2023-01-07T13:28:45.084Z,101034.25
2023-01-07T13:32:24.056Z,101037.03
2023-01-07T13:35:58.838Z,101031.69
2023-01-07T13:39:43.501Z,101026.44
2023-01-07T13:42:53.660Z,101023.22
2023-01-07T13:46:02.643Z,101011.59
2023-01-07T13:49:07.325Z,101015.66
2023-01-07T13:52:20.206Z,101013.28
2023-01-07T13:55:42.320Z,101005.84
2023-01-07T13:58:48.780Z,101011.00
2023-01-07T14:02:22.621Z,101002.00
2023-01-07T14:05:28.848Z,100983.50
2023-01-07T14:08:33.985Z,100985.75
2023-01-07T14:12:04.595Z,100974.97
2023-01-07T14:15:41.431Z,100973.53
2023-01-07T14:19:08.465Z,100972.16
2023-01-07T14:22:27.002Z,100968.84
2023-01-07T14:25:50.406Z,100960.19
2023-01-07T14:29:42.430Z,100961.09
2023-01-07T14:32:46.797Z,100952.38
2023-01-07T14:35:58.485Z,100947.78
2023-01-07T14:39:02.524Z,100939.97
2023-01-07T14:42:43.187Z,100934.09
2023-01-07T14:45:56.282Z,100934.00
2023-01-07T14:49:39.061Z,100938.44
2023-01-07T14:53:36.875Z,100929.88
2023-01-07T14:56:58.846Z,100920.63
2023-01-07T15:00:53.978Z,100919.94
2023-01-07T15:04:38.824Z,100913.09
2023-01-07T15:07:48.820Z,100916.84
2023-01-07T15:11:12.421Z,100918.75
2023-01-07T15:14:46.192Z,100911.66
2023-01-07T15:17:51.598Z,100914.59
2023-01-07T15:21:19.234Z,100916.38
2023-01-07T15:24:39.755Z,100905.28
2023-01-07T15:27:52.774Z,100903.38
2023-01-07T15:31:07.916Z,100897.88
2023-01-07T15:34:15.957Z,100897.53
2023-01-07T15:37:20.694Z,100896.75
2023-01-07T15:40:27.908Z,100881.06
2023-01-07T15:43:32.907Z,100889.06
2023-01-07T15:46:42.571Z,100873.34
2023-01-07T15:49:47.707Z,100868.84
2023-01-07T15:52:54.364Z,100872.47
2023-01-07T15:56:03.651Z,100867.44
2023-01-07T15:59:10.471Z,100850.88
2023-01-07T16:02:25.817Z,100849.97
2023-01-07T16:05:32.150Z,100852.53
2023-01-07T16:08:36.054Z,100838.72
2023-01-07T16:11:39.928Z,100832.66
2023-01-07T16:14:43.639Z,100826.50
2023-01-07T16:17:52.518Z,100819.72
2023-01-07T16:21:03.647Z,100824.06
2023-01-07T16:24:08.595Z,100830.03
2023-01-07T16:27:12.553Z,100828.22
2023-01-07T16:30:18.177Z,100818.59
2023-01-07T16:33:27.365Z,100812.63
2023-01-07T16:36:39.064Z,100806.56
2023-01-07T16:39:47.744Z,100807.47
2023-01-07T16:42:52.555Z,100812.00
2023-01-07T16:46:19.048Z,100812.19
2023-01-07T16:49:29.733Z,100815.78
2023-01-07T16:52:35.510Z,100807.56
2023-01-07T16:55:51.056Z,100792.09
2023-01-07T16:58:56.897Z,100787.94
2023-01-07T17:02:12.202Z,100781.03
2023-01-07T17:05:19.680Z,100779.25
2023-01-07T17:08:24.811Z,100778.66
2023-01-07T17:11:36.906Z,100782.75
2023-01-07T17:14:50.438Z,100766.25
2023-01-07T17:17:54.545Z,100758.53
2023-01-07T17:21:00.876Z,100756.75
2023-01-07T17:24:06.885Z,100748.16
2023-01-07T17:27:27.590Z,100755.28
2023-01-07T17:30:37.269Z,100750.28
2023-01-07T17:33:41.101Z,100741.69
2023-01-07T17:36:45.050Z,100751.28
2023-01-07T17:39:51.416Z,100741.69
2023-01-07T17:43:14.412Z,100748.03
2023-01-07T17:46:18.227Z,100732.34
2023-01-07T17:49:22.142Z,100720.13
2023-01-07T17:52:26.102Z,100724.34
2023-01-07T17:55:35.804Z,100713.34
2023-01-07T17:58:41.204Z,100716.81
2023-01-07T18:01:45.562Z,100713.44
2023-01-07T18:04:49.433Z,100702.91
2023-01-07T18:07:54.662Z,100699.53
2023-01-07T18:11:23.013Z,100702.88
2023-01-07T18:14:27.508Z,100698.91
2023-01-07T18:17:31.875Z,100708.56
2023-01-07T18:20:35.652Z,100719.00
2023-01-07T18:23:39.740Z,100718.19
2023-01-07T18:26:45.054Z,100717.22
2023-01-07T18:29:48.841Z,100716.44
2023-01-07T18:32:53.811Z,100711.25
2023-01-07T18:35:58.007Z,100715.97
2023-01-07T18:39:01.898Z,100713.31
2023-01-07T18:42:07.603Z,100709.84
2023-01-07T18:45:12.240Z,100695.41
2023-01-07T18:48:18.900Z,100696.59
2023-01-07T18:51:22.790Z,100702.56
2023-01-07T18:54:26.765Z,100708.22
2023-01-07T18:57:31.905Z,100691.41
2023-01-07T19:00:36.613Z,100697.59
2023-01-07T19:03:41.231Z,100703.78
2023-01-07T19:06:45.446Z,100693.34
2023-01-07T19:09:49.348Z,100693.16
2023-01-07T19:12:54.643Z,100694.75
2023-01-07T19:15:58.576Z,100683.50
2023-01-07T19:19:02.897Z,100672.97
2023-01-07T19:22:06.847Z,100667.94
2023-01-07T19:25:11.549Z,100673.16
2023-01-07T19:28:16.857Z,100671.97
2023-01-07T19:31:21.003Z,100660.94
2023-01-07T19:34:25.634Z,100663.38
2023-01-07T19:37:29.693Z,100656.50
2023-01-07T19:40:33.555Z,100645.97
2023-01-07T19:43:39.229Z,100646.56
2023-01-07T19:46:44.184Z,100635.31
2023-01-07T19:49:48.037Z,100629.25
2023-01-07T19:52:51.928Z,100630.78
2023-01-07T19:55:59.915Z,100620.41
2023-01-07T19:59:05.316Z,100606.38
2023-01-07T20:02:09.398Z,100603.03
2023-01-07T20:05:14.446Z,100593.34
2023-01-07T20:08:18.293Z,100593.34
2023-01-07T20:11:22.473Z,100574.28
2023-01-07T20:14:27.677Z,100570.63
2023-01-07T20:17:31.616Z,100566.34
2023-01-07T20:20:35.276Z,100565.50
2023-01-07T20:23:41.081Z,100557.69
2023-01-07T20:26:44.736Z,100559.25
2023-01-07T20:29:50.406Z,100553.19
2023-01-07T20:32:54.203Z,100557.63
2023-01-07T20:36:01.957Z,100551.47
2023-01-07T20:39:06.393Z,100543.69
2023-01-07T20:42:10.310Z,100533.53
2023-01-07T20:45:15.834Z,100534.38
2023-01-07T20:48:19.758Z,100536.03
2023-01-07T20:51:24.012Z,100530.44
2023-01-07T20:54:27.929Z,100531.66
2023-01-07T20:57:32.440Z,100541.41
2023-01-07T21:00:40.950Z,100547.28
2023-01-07T21:03:46.829Z,100560.56
2023-01-07T21:06:50.701Z,100559.78
2023-01-07T21:09:54.391Z,100566.44
2023-01-07T21:12:58.190Z,100564.03
2023-01-07T21:16:06.001Z,100559.31
2023-01-07T21:19:09.953Z,100561.34
2023-01-07T21:22:13.724Z,100562.94
2023-01-07T21:25:17.788Z,100559.41
2023-01-07T21:28:21.964Z,100560.25
2023-01-07T21:31:28.713Z,100551.56
2023-01-07T21:34:32.543Z,100546.28
2023-01-07T21:37:36.534Z,100531.63
2023-01-07T21:40:40.787Z,100534.47
2023-01-07T21:43:45.318Z,100528.91
2023-01-07T21:46:50.549Z,100522.13
2023-01-07T21:49:54.368Z,100513.31
2023-01-07T21:52:57.987Z,100515.38
2023-01-07T21:56:07.915Z,100509.72
2023-01-07T21:59:11.705Z,100517.75
2023-01-07T22:02:21.071Z,100521.97
2023-01-07T22:05:27.906Z,100513.19
2023-01-07T22:08:31.799Z,100507.78
2023-01-07T22:11:38.682Z,100511.25
2023-01-07T22:14:42.623Z,100514.66
2023-01-07T22:17:47.703Z,100507.28
2023-01-07T22:20:57.021Z,100491.78
2023-01-07T22:24:00.648Z,100489.13
2023-01-07T22:27:04.300Z,100492.56
2023-01-07T22:30:10.414Z,100493.22
2023-01-07T22:33:15.536Z,100480.56
2023-01-07T22:36:27.654Z,100488.66
2023-01-07T22:39:37.035Z,100490.19
2023-01-07T22:42:51.860Z,100488.38
2023-01-07T22:45:59.833Z,100470.91
2023-01-07T22:49:04.961Z,100482.66
2023-01-07T22:52:09.093Z,100479.47
2023-01-07T22:55:14.214Z,100476.13
2023-01-07T22:58:19.181Z,100472.91
2023-01-07T23:01:22.921Z,100473.78
2023-01-07T23:04:28.033Z,100462.28
2023-01-07T23:07:31.721Z,100467.00
2023-01-07T23:10:36.814Z,100460.75
2023-01-07T23:13:40.679Z,100460.72
2023-01-07T23:16:44.893Z,100458.38
2023-01-07T23:19:49.929Z,100449.44
2023-01-07T23:22:53.593Z,100441.75
2023-01-07T23:25:57.179Z,100437.75
2023-01-07T23:29:00.803Z,100438.81
2023-01-07T23:32:06.103Z,100437.25
2023-01-07T23:35:11.788Z,100444.81
2023-01-07T23:38:15.397Z,100437.59
2023-01-07T23:41:19.246Z,100437.25
2023-01-07T23:44:23.104Z,100434.47
2023-01-07T23:47:26.840Z,100427.09
2023-01-07T23:50:31.846Z,100437.69
2023-01-07T23:53:35.681Z,100442.94
2023-01-07T23:56:39.311Z,100434.94
2023-01-07T23:59:43.847Z,100415.28
